createdAt,value
2018-11-13T00:00:23.164Z,36.80
2018-11-13T00:02:53.162Z,32.70
2018-11-13T00:05:23.050Z,23.33
2018-11-13T00:07:52.444Z,27.40
2018-11-13T00:10:36.478Z,24.77
2018-11-13T00:13:05.958Z,20.43
2018-11-13T00:15:35.170Z,25.30
2018-11-13T00:18:04.738Z,24.20
2018-11-13T00:20:34.085Z,21.10
2018-11-13T00:23:03.277Z,17.87
2018-11-13T00:25:32.530Z,20.70
2018-11-13T00:28:01.888Z,18.00
2018-11-13T00:30:31.038Z,15.70
2018-11-13T00:33:00.266Z,17.50
2018-11-13T00:35:29.718Z,16.50
2018-11-13T00:37:58.950Z,14.80
2018-11-13T00:40:28.161Z,18.97
2018-11-13T00:42:57.518Z,37.20
2018-11-13T00:45:26.885Z,24.73
2018-11-13T00:47:56.116Z,29.10
2018-11-13T00:50:25.634Z,22.67
2018-11-13T00:52:54.798Z,23.83
2018-11-13T00:55:24.126Z,29.77
2018-11-13T00:57:53.690Z,22.23
2018-11-13T01:00:23.039Z,24.73
2018-11-13T01:02:52.370Z,23.57
2018-11-13T01:05:22.052Z,27.20
2018-11-13T01:07:52.005Z,23.67
2018-11-13T01:10:21.694Z,37.57
2018-11-13T01:12:51.184Z,24.93
2018-11-13T01:15:20.946Z,26.90
2018-11-13T01:17:50.576Z,24.47
2018-11-13T01:20:20.140Z,24.47
2018-11-13T01:22:49.441Z,30.90
2018-11-13T01:25:19.416Z,27.10
2018-11-13T01:27:48.955Z,30.43
2018-11-13T01:30:19.480Z,23.97
2018-11-13T01:32:48.863Z,25.33
2018-11-13T01:35:19.855Z,22.93
2018-11-13T01:37:49.113Z,19.20
2018-11-13T01:40:20.035Z,22.33
2018-11-13T01:42:49.363Z,26.00
2018-11-13T01:45:19.636Z,20.23
2018-11-13T01:47:49.125Z,20.73
2018-11-13T01:50:19.298Z,18.67
2018-11-13T01:52:48.588Z,18.27
2018-11-13T01:55:18.244Z,16.87
2018-11-13T01:57:47.724Z,23.70
2018-11-13T02:00:18.663Z,23.37
2018-11-13T02:02:49.210Z,20.13
2018-11-13T02:05:20.215Z,21.57
2018-11-13T02:07:50.057Z,17.17
2018-11-13T02:10:20.927Z,19.30
2018-11-13T02:12:50.765Z,24.07
2018-11-13T02:15:21.360Z,22.03
2018-11-13T02:17:50.683Z,22.77
2018-11-13T02:20:22.131Z,22.30
2018-11-13T02:22:51.478Z,21.60
2018-11-13T02:25:21.528Z,23.27
2018-11-13T02:27:51.215Z,19.23
2018-11-13T02:30:22.748Z,26.77
2018-11-13T02:32:52.200Z,21.50
2018-11-13T02:35:21.802Z,28.20
2018-11-13T02:37:51.008Z,23.30
2018-11-13T02:40:20.480Z,24.07
2018-11-13T02:42:50.250Z,27.03
2018-11-13T02:45:20.326Z,21.70
2018-11-13T02:47:49.848Z,30.43
2018-11-13T02:50:20.288Z,31.87
2018-11-13T02:52:49.747Z,21.93
2018-11-13T02:55:19.419Z,22.40
2018-11-13T02:57:48.848Z,26.53
2018-11-13T03:00:20.285Z,26.00
2018-11-13T03:05:50.397Z,25.97
2018-11-13T03:08:19.871Z,27.33
2018-11-13T03:10:49.372Z,27.30
2018-11-13T03:13:19.131Z,30.67
2018-11-13T03:15:48.512Z,23.53
2018-11-13T03:18:17.863Z,30.27
2018-11-13T03:20:47.682Z,24.13
2018-11-13T03:23:17.184Z,27.17
2018-11-13T03:25:46.616Z,22.63
2018-11-13T03:28:16.511Z,20.67
2018-11-13T03:30:45.944Z,19.50
2018-11-13T03:33:15.360Z,19.17
2018-11-13T03:35:45.060Z,19.03
2018-11-13T03:38:14.625Z,19.03
2018-11-13T03:40:44.065Z,16.33
2018-11-13T03:43:13.660Z,16.63
2018-11-13T03:45:43.073Z,15.70
2018-11-13T03:48:12.581Z,14.57
2018-11-13T03:50:42.260Z,14.43
2018-11-13T03:53:11.500Z,14.70
2018-11-13T03:55:40.991Z,14.93
2018-11-13T03:58:10.514Z,13.40
2018-11-13T04:00:40.003Z,12.93
2018-11-13T04:03:09.504Z,14.60
2018-11-13T04:05:39.181Z,14.23
2018-11-13T04:08:08.725Z,14.27
2018-11-13T04:10:38.121Z,13.83
2018-11-13T04:13:07.841Z,13.60
2018-11-13T04:15:37.340Z,13.93
2018-11-13T04:18:06.967Z,13.80
2018-11-13T04:20:36.340Z,14.93
2018-11-13T04:23:05.908Z,13.50
2018-11-13T04:25:35.260Z,14.27
2018-11-13T04:28:05.064Z,14.50
2018-11-13T04:30:34.378Z,14.37
2018-11-13T04:33:03.668Z,13.30
2018-11-13T04:35:33.335Z,15.07
2018-11-13T04:38:02.787Z,17.42
2018-11-13T04:40:32.232Z,16.87
2018-11-13T04:43:01.692Z,15.07
2018-11-13T04:45:30.974Z,15.67
2018-11-13T04:48:00.248Z,15.17
2018-11-13T04:50:29.782Z,16.87
2018-11-13T04:52:59.052Z,17.33
2018-11-13T04:55:28.312Z,17.43
2018-11-13T04:57:57.987Z,17.20
2018-11-13T05:00:27.347Z,17.93
2018-11-13T05:02:56.764Z,19.47
2018-11-13T05:05:26.604Z,19.00
2018-11-13T05:07:56.400Z,30.77
2018-11-13T05:10:26.233Z,20.83
2018-11-13T05:12:55.760Z,19.43
2018-11-13T05:15:24.952Z,23.80
2018-11-13T05:17:54.279Z,23.47
2018-11-13T05:20:23.564Z,20.50
2018-11-13T05:22:53.017Z,20.83
2018-11-13T05:25:22.533Z,20.67
2018-11-13T05:27:51.747Z,20.57
2018-11-13T05:30:22.166Z,21.83
2018-11-13T05:32:51.968Z,21.53
2018-11-13T05:35:22.013Z,17.90
2018-11-13T05:37:51.403Z,22.13
2018-11-13T05:40:26.357Z,21.90
2018-11-13T05:42:56.061Z,22.20
2018-11-13T05:45:26.376Z,19.83
2018-11-13T05:47:55.805Z,21.00
2018-11-13T05:50:25.200Z,19.60
2018-11-13T05:52:55.120Z,16.67
2018-11-13T05:55:24.659Z,17.00
2018-11-13T05:57:54.044Z,17.00
2018-11-13T06:00:30.568Z,16.20
2018-11-13T06:03:00.676Z,17.50
2018-11-13T06:05:30.696Z,17.33
2018-11-13T06:08:00.259Z,16.87
2018-11-13T06:10:29.839Z,18.20
2018-11-13T06:12:59.223Z,15.80
2018-11-13T06:15:28.731Z,16.00
2018-11-13T06:17:58.269Z,17.33
2018-11-13T06:20:27.731Z,17.43
2018-11-13T06:22:57.287Z,18.73
2018-11-13T06:25:26.585Z,17.27
2018-11-13T06:27:56.204Z,16.43
2018-11-13T06:30:26.225Z,17.57
2018-11-13T06:32:55.806Z,17.93
2018-11-13T06:35:25.151Z,18.20
2018-11-13T06:37:54.650Z,15.50
2018-11-13T06:40:24.046Z,15.13
2018-11-13T06:42:53.338Z,15.33
2018-11-13T06:45:23.801Z,16.83
2018-11-13T06:47:53.256Z,16.23
2018-11-13T06:50:22.531Z,16.47
2018-11-13T06:52:51.963Z,17.23
2018-11-13T06:55:24.891Z,18.60
2018-11-13T06:57:54.288Z,17.73
2018-11-13T07:00:23.840Z,17.00
2018-11-13T07:02:53.178Z,17.40
2018-11-13T07:05:22.685Z,17.73
2018-11-13T07:07:52.020Z,17.37
2018-11-13T07:10:22.563Z,18.07
2018-11-13T07:12:52.756Z,18.70
2018-11-13T07:15:23.226Z,19.30
2018-11-13T07:17:54.055Z,19.47
2018-11-13T07:20:24.296Z,18.73
2018-11-13T07:22:53.527Z,20.63
2018-11-13T07:25:23.342Z,18.83
2018-11-13T07:27:52.792Z,18.13
2018-11-13T07:30:22.775Z,18.90
2018-11-13T07:32:52.235Z,19.80
2018-11-13T07:35:22.383Z,20.23
2018-11-13T07:37:53.504Z,18.20
2018-11-13T07:40:22.822Z,18.97
2018-11-13T07:42:52.403Z,18.43
2018-11-13T07:45:21.864Z,16.43
2018-11-13T07:47:51.632Z,16.87
2018-11-13T07:50:20.823Z,15.90
2018-11-13T07:52:50.318Z,16.47
2018-11-13T07:55:19.566Z,21.35
2018-11-13T07:57:48.956Z,19.13
2018-11-13T08:00:20.448Z,17.17
2018-11-13T08:02:50.998Z,17.90
2018-11-13T08:05:20.353Z,16.67
2018-11-13T08:07:49.847Z,16.10
2018-11-13T08:10:19.375Z,16.77
2018-11-13T08:12:48.696Z,17.10
2018-11-13T08:15:18.479Z,16.63
2018-11-13T08:17:48.090Z,17.63
2018-11-13T08:20:17.335Z,17.60
2018-11-13T08:22:46.825Z,17.23
2018-11-13T08:25:16.820Z,16.83
2018-11-13T08:27:46.189Z,18.13
2018-11-13T08:30:17.292Z,16.73
2018-11-13T08:32:47.196Z,17.60
2018-11-13T08:35:16.812Z,18.07
2018-11-13T08:37:46.145Z,18.40
2018-11-13T08:40:17.118Z,16.97
2018-11-13T08:42:46.855Z,15.63
2018-11-13T08:45:17.396Z,15.57
2018-11-13T08:47:46.851Z,16.20
2018-11-13T08:50:16.697Z,15.53
2018-11-13T08:52:46.596Z,14.87
2018-11-13T08:55:16.684Z,14.03
2018-11-13T08:57:46.001Z,13.40
2018-11-13T09:00:18.233Z,11.97
2018-11-13T09:02:48.200Z,12.20
2018-11-13T09:05:18.318Z,11.27
2018-11-13T09:07:47.611Z,11.17
2018-11-13T09:10:18.160Z,10.33
2018-11-13T09:12:48.184Z,9.47
2018-11-13T09:15:20.176Z,9.60
2018-11-13T09:17:49.762Z,9.87
2018-11-13T09:20:20.431Z,10.03
2018-11-13T09:22:49.938Z,10.43
2018-11-13T09:25:21.626Z,10.57
2018-11-13T09:27:50.997Z,10.67
2018-11-13T09:30:21.443Z,10.80
2018-11-13T09:32:51.128Z,10.30
2018-11-13T09:35:20.785Z,10.40
2018-11-13T09:37:50.058Z,9.83
2018-11-13T09:40:20.927Z,11.07
2018-11-13T09:42:51.583Z,10.87
2018-11-13T09:45:21.040Z,10.50
2018-11-13T09:47:50.555Z,10.77
2018-11-13T09:50:21.503Z,11.43
2018-11-13T09:52:52.206Z,11.17
2018-11-13T09:58:02.405Z,11.77
2018-11-13T10:00:32.050Z,11.53
2018-11-13T10:03:02.246Z,11.10
2018-11-13T10:05:31.380Z,10.67
2018-11-13T10:08:00.611Z,11.13
2018-11-13T10:10:29.894Z,10.60
2018-11-13T10:12:59.604Z,9.80
2018-11-13T10:15:30.217Z,9.93
2018-11-13T10:18:00.018Z,10.93
2018-11-13T10:20:29.531Z,10.30
2018-11-13T10:22:59.537Z,11.00
2018-11-13T10:25:28.976Z,12.20
2018-11-13T10:27:58.467Z,11.53
2018-11-13T10:30:27.887Z,12.73
2018-11-13T10:32:57.417Z,12.67
2018-11-13T10:35:27.311Z,12.63
2018-11-13T10:37:56.904Z,14.10
2018-11-13T10:40:26.316Z,12.73
2018-11-13T10:42:55.887Z,14.00
2018-11-13T10:45:26.508Z,15.23
2018-11-13T10:47:55.973Z,14.50
2018-11-13T10:50:26.339Z,15.03
2018-11-13T10:52:56.048Z,17.07
2018-11-13T10:55:25.460Z,17.70
2018-11-13T10:57:54.987Z,18.87
2018-11-13T11:00:28.612Z,18.40
2018-11-13T11:03:03.221Z,18.20
2018-11-13T11:05:32.944Z,19.13
2018-11-13T11:08:02.403Z,20.13
2018-11-13T11:10:31.780Z,18.63
2018-11-13T11:13:01.271Z,20.97
2018-11-13T11:15:30.432Z,21.27
2018-11-13T11:17:59.670Z,20.70
2018-11-13T11:20:29.889Z,22.50
2018-11-13T11:22:59.423Z,22.50
2018-11-13T11:25:28.940Z,21.70
2018-11-13T11:27:58.839Z,21.93
2018-11-13T11:30:28.231Z,23.23
2018-11-13T11:32:57.602Z,22.20
2018-11-13T11:35:27.113Z,23.40
2018-11-13T11:37:56.484Z,24.87
2018-11-13T11:40:26.341Z,22.80
2018-11-13T11:42:55.749Z,22.93
2018-11-13T11:45:25.504Z,21.30
2018-11-13T11:47:54.815Z,21.47
2018-11-13T11:50:24.497Z,20.83
2018-11-13T11:52:53.861Z,21.70
2018-11-13T11:55:23.214Z,20.77
2018-11-13T11:57:52.780Z,20.27
2018-11-13T12:00:27.344Z,19.37
2018-11-13T12:02:56.960Z,19.87
2018-11-13T12:05:26.612Z,19.83
2018-11-13T12:07:56.142Z,19.63
2018-11-13T12:10:25.932Z,19.20
2018-11-13T12:12:55.159Z,17.90
2018-11-13T12:15:24.857Z,18.50
2018-11-13T12:17:54.536Z,18.37
2018-11-13T12:20:23.883Z,16.97
2018-11-13T12:22:53.309Z,17.90
2018-11-13T12:25:22.795Z,18.40
2018-11-13T12:27:52.265Z,18.53
2018-11-13T12:30:22.930Z,18.20
2018-11-13T12:32:52.808Z,18.00
2018-11-13T12:35:22.740Z,18.23
2018-11-13T12:37:52.064Z,17.87
2018-11-13T12:40:22.884Z,18.93
2018-11-13T12:42:52.655Z,19.07
2018-11-13T12:45:22.098Z,18.40
2018-11-13T12:47:51.627Z,17.70
2018-11-13T12:50:21.722Z,19.07
2018-11-13T12:52:51.199Z,16.97
2018-11-13T12:55:21.923Z,18.27
2018-11-13T12:57:51.469Z,18.53
2018-11-13T13:00:23.853Z,17.43
2018-11-13T13:02:53.240Z,18.17
2018-11-13T13:05:22.614Z,17.93
2018-11-13T13:07:52.524Z,19.33
2018-11-13T13:10:22.747Z,19.27
2018-11-13T13:12:52.208Z,17.40
2018-11-13T13:15:21.671Z,17.20
2018-11-13T13:17:50.855Z,18.30
2018-11-13T13:20:22.845Z,19.83
2018-11-13T13:22:52.490Z,18.83
2018-11-13T13:25:23.185Z,19.50
2018-11-13T13:27:52.529Z,18.37
2018-11-13T13:30:25.371Z,19.83
2018-11-13T13:32:54.748Z,19.13
2018-11-13T13:35:40.224Z,19.07
2018-11-13T13:38:10.088Z,19.40
2018-11-13T13:40:40.161Z,19.40
2018-11-13T13:43:10.472Z,18.03
2018-11-13T13:45:40.513Z,19.57
2018-11-13T13:48:09.796Z,18.90
2018-11-13T13:50:39.603Z,18.83
2018-11-13T13:53:09.804Z,20.10
2018-11-13T13:55:39.173Z,20.80
2018-11-13T13:58:08.836Z,20.40
2018-11-13T14:00:38.302Z,20.23
2018-11-13T14:03:08.561Z,20.87
2018-11-13T14:05:38.108Z,20.63
2018-11-13T14:08:08.128Z,21.13
2018-11-13T14:10:37.352Z,20.70
2018-11-13T14:13:07.087Z,21.30
2018-11-13T14:15:36.559Z,21.53
2018-11-13T14:18:05.904Z,21.20
2018-11-13T14:20:35.404Z,21.37
2018-11-13T14:23:04.785Z,22.30
2018-11-13T14:25:34.292Z,22.70
2018-11-13T14:28:03.863Z,21.93
2018-11-13T14:30:34.727Z,23.27
2018-11-13T14:33:07.267Z,25.10
2018-11-13T14:35:36.720Z,24.50
2018-11-13T14:38:06.140Z,23.90
2018-11-13T14:40:38.076Z,22.93
2018-11-13T14:43:07.683Z,23.83
2018-11-13T14:45:37.287Z,25.03
2018-11-13T14:48:07.462Z,24.40
2018-11-13T14:50:37.311Z,23.57
2018-11-13T14:53:07.081Z,24.40
2018-11-13T14:55:38.684Z,25.10
2018-11-13T14:58:09.417Z,23.50
2018-11-13T15:00:39.323Z,24.30
2018-11-13T15:03:10.155Z,22.87
2018-11-13T15:05:39.488Z,24.50
2018-11-13T15:08:09.578Z,23.40
2018-11-13T15:10:50.000Z,23.33
2018-11-13T15:13:20.097Z,24.37
2018-11-13T15:15:49.581Z,24.37
2018-11-13T15:18:18.868Z,24.27
2018-11-13T15:20:49.011Z,24.17
2018-11-13T15:23:18.358Z,25.57
2018-11-13T15:25:47.636Z,25.50
2018-11-13T15:28:17.182Z,26.27
2018-11-13T15:30:48.107Z,26.73
2018-11-13T15:33:18.994Z,25.63
2018-11-13T15:35:48.447Z,21.27
2018-11-13T15:38:18.052Z,18.57
2018-11-13T15:40:47.561Z,18.57
2018-11-13T15:43:17.161Z,20.60
2018-11-13T15:45:46.707Z,18.67
2018-11-13T15:48:17.251Z,15.83
2018-11-13T15:50:46.564Z,5.50
2018-11-13T15:53:16.092Z,5.23
2018-11-13T15:55:45.603Z,2.70
2018-11-13T15:58:14.874Z,1.30
2018-11-13T16:00:44.404Z,1.00
2018-11-13T16:03:16.377Z,0.80
2018-11-13T16:05:54.015Z,0.50
2018-11-13T16:08:23.410Z,0.50
2018-11-13T16:10:52.636Z,0.40
2018-11-13T16:13:22.083Z,0.30
2018-11-13T16:15:51.412Z,0.40
2018-11-13T16:18:24.281Z,0.60
2018-11-13T16:20:53.660Z,0.33
2018-11-13T16:23:23.667Z,0.50
2018-11-13T16:25:53.332Z,0.60
2018-11-13T16:28:22.879Z,0.30
2018-11-13T16:30:52.348Z,0.40
2018-11-13T16:33:21.907Z,0.30
2018-11-13T16:35:52.032Z,0.30
2018-11-13T16:38:23.589Z,0.20
2018-11-13T16:40:53.632Z,0.30
2018-11-13T16:43:23.188Z,0.33
2018-11-13T16:45:53.023Z,0.30
2018-11-13T16:48:22.537Z,0.40
2018-11-13T16:50:51.681Z,0.30
2018-11-13T16:53:21.209Z,0.70
2018-11-13T16:55:55.965Z,0.47
2018-11-13T16:58:25.149Z,0.60
2018-11-13T17:00:54.534Z,0.70
2018-11-13T17:03:24.073Z,1.00
2018-11-13T17:05:53.403Z,0.83
2018-11-13T17:08:22.735Z,0.87
2018-11-13T17:10:52.236Z,1.20
2018-11-13T17:13:21.587Z,1.10
2018-11-13T17:15:51.034Z,1.83
2018-11-13T17:18:20.480Z,1.70
2018-11-13T17:20:49.783Z,1.80
2018-11-13T17:23:19.272Z,2.10
2018-11-13T17:25:48.949Z,1.63
2018-11-13T17:28:18.333Z,2.60
2018-11-13T17:30:47.744Z,3.87
2018-11-13T17:33:17.184Z,3.57
2018-11-13T17:35:46.594Z,6.43
2018-11-13T17:38:15.860Z,6.70
2018-11-13T17:40:45.968Z,7.63
2018-11-13T17:43:15.355Z,7.77
2018-11-13T17:45:44.745Z,7.97
2018-11-13T17:48:14.226Z,6.87
2018-11-13T17:50:43.977Z,5.53
2018-11-13T17:53:13.466Z,4.20
2018-11-13T17:55:43.100Z,3.17
2018-11-13T17:58:14.042Z,3.37
2018-11-13T18:00:45.596Z,2.80
2018-11-13T18:03:15.596Z,2.83
2018-11-13T18:05:46.387Z,2.30
2018-11-13T18:08:15.716Z,2.60
2018-11-13T18:10:45.985Z,2.73
2018-11-13T18:13:15.799Z,2.30
2018-11-13T18:15:45.055Z,3.00
2018-11-13T18:18:14.466Z,2.50
2018-11-13T18:20:44.073Z,2.60
2018-11-13T18:23:13.488Z,2.03
2018-11-13T18:25:43.820Z,2.63
2018-11-13T18:28:14.424Z,2.30
2018-11-13T18:30:44.839Z,2.67
2018-11-13T18:33:14.681Z,2.70
2018-11-13T18:35:44.144Z,2.60
2018-11-13T18:38:14.752Z,2.40
2018-11-13T18:40:44.223Z,2.40
2018-11-13T18:43:16.238Z,2.33
2018-11-13T18:45:46.579Z,2.40
2018-11-13T18:48:16.157Z,2.30
2018-11-13T18:50:46.511Z,1.70
2018-11-13T18:53:43.889Z,2.20
2018-11-13T18:56:23.272Z,1.87
2018-11-13T18:58:53.213Z,1.83
2018-11-13T19:01:22.745Z,2.00
2018-11-13T19:03:52.590Z,1.90
2018-11-13T19:06:23.327Z,1.90
2018-11-13T19:08:53.572Z,2.07
2018-11-13T19:11:23.140Z,1.77
2018-11-13T19:13:53.412Z,2.27
2018-11-13T19:16:23.040Z,2.10
2018-11-13T19:18:52.716Z,2.83
2018-11-13T19:21:22.612Z,2.47
2018-11-13T19:23:52.284Z,3.10
2018-11-13T19:26:21.754Z,3.33
2018-11-13T19:28:51.811Z,2.93
2018-11-13T19:31:28.001Z,2.27
2018-11-13T19:33:57.725Z,3.27
2018-11-13T19:36:28.164Z,2.60
2018-11-13T19:38:57.640Z,3.70
2018-11-13T19:41:27.623Z,3.00
2018-11-13T19:43:57.569Z,3.80
2018-11-13T19:46:27.114Z,3.13
2018-11-13T19:48:57.298Z,3.43
2018-11-13T19:51:27.023Z,3.90
2018-11-13T19:53:57.706Z,3.67
2018-11-13T19:56:28.994Z,3.30
2018-11-13T19:59:11.085Z,3.30
2018-11-13T20:09:06.136Z,2.60
2018-11-13T20:11:35.397Z,2.57
2018-11-13T20:14:04.772Z,2.60
2018-11-13T20:16:34.580Z,2.60
2018-11-13T20:19:04.343Z,2.77
2018-11-13T20:21:34.620Z,2.20
2018-11-13T20:24:03.956Z,2.33
2018-11-13T20:26:33.470Z,2.53
2018-11-13T20:29:03.003Z,2.40
2018-11-13T20:31:32.738Z,2.37
2018-11-13T20:34:02.312Z,2.40
2018-11-13T20:36:31.507Z,2.43
2018-11-13T20:39:01.796Z,2.53
2018-11-13T20:41:31.927Z,2.40
2018-11-13T20:44:01.208Z,2.30
2018-11-13T20:46:30.674Z,2.30
2018-11-13T20:49:00.100Z,2.90
2018-11-13T20:51:29.567Z,2.80
2018-11-13T20:54:00.089Z,2.60
2018-11-13T20:56:29.536Z,2.37
2018-11-13T20:58:59.798Z,2.87
2018-11-13T21:01:29.524Z,2.70
2018-11-13T21:03:58.927Z,2.40
2018-11-13T21:06:28.420Z,2.20
2018-11-13T21:08:58.021Z,2.67
2018-11-13T21:11:27.675Z,2.10
2018-11-13T21:13:57.095Z,2.70
2018-11-13T21:16:26.788Z,2.77
2018-11-13T21:18:56.253Z,2.47
2018-11-13T21:21:25.671Z,2.47
2018-11-13T21:23:55.269Z,2.47
2018-11-13T21:26:25.003Z,2.70
2018-11-13T21:28:54.452Z,2.60
2018-11-13T21:31:24.098Z,2.80
2018-11-13T21:33:54.073Z,2.57
2018-11-13T21:36:23.693Z,2.63
2018-11-13T21:39:00.273Z,2.37
2018-11-13T21:41:29.892Z,2.50
2018-11-13T21:43:59.092Z,3.00
2018-11-13T21:46:29.131Z,1.97
2018-11-13T21:48:58.530Z,2.37
2018-11-13T21:51:27.807Z,3.13
2018-11-13T21:53:58.304Z,3.23
2018-11-13T21:56:27.716Z,2.70
2018-11-13T21:58:57.040Z,2.70
2018-11-13T22:01:26.791Z,3.10
2018-11-13T22:03:56.297Z,2.63
2018-11-13T22:06:25.634Z,2.90
2018-11-13T22:08:55.334Z,2.80
2018-11-13T22:11:24.537Z,3.10
2018-11-13T22:13:54.627Z,3.50
2018-11-13T22:16:24.525Z,2.73
2018-11-13T22:18:55.227Z,3.60
2018-11-13T22:21:24.443Z,3.63
2018-11-13T22:23:54.702Z,2.80
2018-11-13T22:26:23.983Z,3.40
2018-11-13T22:28:54.278Z,3.57
2018-11-13T22:31:23.845Z,4.23
2018-11-13T22:33:53.504Z,3.97
2018-11-13T22:36:22.808Z,3.97
2018-11-13T22:38:53.480Z,3.93
2018-11-13T22:41:22.749Z,4.07
2018-11-13T22:43:52.101Z,4.33
2018-11-13T22:46:22.380Z,3.87
2018-11-13T22:48:51.680Z,3.93
2018-11-13T22:51:21.036Z,3.57
2018-11-13T22:53:50.983Z,4.33
2018-11-13T22:56:20.390Z,3.40
2018-11-13T22:58:49.543Z,3.90
2018-11-13T23:01:19.444Z,4.27
2018-11-13T23:03:48.872Z,3.60
2018-11-13T23:06:18.610Z,3.83
2018-11-13T23:08:48.485Z,3.53
2018-11-13T23:11:17.892Z,3.57
2018-11-13T23:13:47.291Z,3.90
2018-11-13T23:16:17.013Z,3.60
2018-11-13T23:18:46.261Z,3.43
2018-11-13T23:21:15.827Z,3.50
2018-11-13T23:23:45.682Z,3.60
2018-11-13T23:26:15.005Z,3.50
2018-11-13T23:28:44.627Z,3.53
2018-11-13T23:31:14.842Z,3.93
2018-11-13T23:33:47.400Z,3.27
2018-11-13T23:36:17.471Z,3.40
2018-11-13T23:38:46.935Z,3.53
2018-11-13T23:41:16.112Z,3.33
2018-11-13T23:43:46.106Z,3.83
2018-11-13T23:46:15.484Z,2.97
2018-11-13T23:48:44.851Z,2.97
2018-11-13T23:51:14.726Z,3.20
2018-11-13T23:53:44.186Z,3.37
2018-11-13T23:56:13.734Z,2.90
2018-11-13T23:58:43.929Z,3.00
